createdAt,value
2023-02-25T00:01:58.058Z,18.17
2023-02-25T00:04:32.177Z,16.65
2023-02-25T00:07:00.263Z,17.63
2023-02-25T00:09:30.416Z,19.13
2023-02-25T00:11:58.410Z,12.57
2023-02-25T00:14:26.387Z,8.57
2023-02-25T00:16:57.410Z,13.23
2023-02-25T00:19:26.485Z,15.50
2023-02-25T00:21:54.302Z,15.70
2023-02-25T00:24:22.330Z,16.80
2023-02-25T00:26:51.393Z,19.93
2023-02-25T00:29:19.231Z,15.37
2023-02-25T00:31:47.457Z,14.40
2023-02-25T00:34:17.624Z,14.53
2023-02-25T00:36:45.686Z,13.93
2023-02-25T00:39:13.719Z,14.83
2023-02-25T00:41:41.623Z,16.27
2023-02-25T00:44:11.020Z,15.13
2023-02-25T00:46:39.253Z,12.73
2023-02-25T00:49:07.137Z,17.87
2023-02-25T00:51:34.963Z,19.70
2023-02-25T00:54:02.802Z,9.57
2023-02-25T00:56:30.826Z,12.40
2023-02-25T00:58:59.724Z,13.97
2023-02-25T01:01:38.055Z,12.97
2023-02-25T01:04:07.517Z,13.37
2023-02-25T01:06:38.876Z,15.17
2023-02-25T01:09:13.788Z,10.13
2023-02-25T01:11:45.518Z,19.80
2023-02-25T01:14:17.745Z,10.80
2023-02-25T01:16:48.806Z,15.30
2023-02-25T01:19:21.644Z,13.30
2023-02-25T01:21:53.378Z,10.07
2023-02-25T01:24:24.675Z,13.83
2023-02-25T01:26:59.091Z,13.93
2023-02-25T01:29:30.400Z,14.77
2023-02-25T01:32:03.167Z,17.90
2023-02-25T01:34:31.555Z,15.30
2023-02-25T01:37:00.617Z,14.87
2023-02-25T01:39:32.151Z,14.60
2023-02-25T01:42:16.402Z,16.50
2023-02-25T01:45:28.515Z,14.63
2023-02-25T01:48:07.007Z,15.07
2023-02-25T01:50:45.500Z,14.07
2023-02-25T01:53:17.609Z,11.90
2023-02-25T01:55:45.792Z,12.33
2023-02-25T01:58:14.859Z,20.53
2023-02-25T02:00:42.947Z,18.27
2023-02-25T02:03:17.051Z,17.60
2023-02-25T02:06:06.976Z,12.63
2023-02-25T02:08:39.831Z,15.77
2023-02-25T02:11:07.896Z,16.90
2023-02-25T02:13:40.722Z,13.40
2023-02-25T02:16:37.968Z,9.60
2023-02-25T02:19:34.687Z,13.50
2023-02-25T02:22:13.043Z,16.38
2023-02-25T02:25:52.665Z,13.43
2023-02-25T02:28:48.118Z,13.13
2023-02-25T02:31:39.552Z,15.73
2023-02-25T02:34:26.516Z,14.30
2023-02-25T02:37:15.482Z,16.70
2023-02-25T02:39:55.935Z,16.43
2023-02-25T02:42:39.097Z,19.37
2023-02-25T02:45:16.602Z,16.00
2023-02-25T02:47:52.280Z,14.60
2023-02-25T02:50:30.830Z,15.93
2023-02-25T02:53:04.436Z,20.20
2023-02-25T02:55:39.063Z,21.63
2023-02-25T02:58:14.360Z,15.93
2023-02-25T03:00:48.978Z,18.23
2023-02-25T03:03:36.025Z,20.33
2023-02-25T03:06:11.101Z,20.80
2023-02-25T03:08:45.950Z,24.88
2023-02-25T03:11:15.154Z,18.77
2023-02-25T03:13:46.442Z,18.30
2023-02-25T03:16:24.989Z,18.20
2023-02-25T03:19:03.030Z,22.10
2023-02-25T03:21:38.716Z,17.23
2023-02-25T03:24:22.290Z,14.37
2023-02-25T03:26:53.498Z,16.67
2023-02-25T03:29:28.434Z,18.53
2023-02-25T03:32:04.735Z,25.33
2023-02-25T03:34:41.940Z,17.97
2023-02-25T03:37:17.284Z,22.80
2023-02-25T03:39:52.992Z,20.92
2023-02-25T03:42:27.468Z,25.80
2023-02-25T03:45:01.292Z,24.13
2023-02-25T03:47:34.431Z,26.47
2023-02-25T03:50:11.873Z,27.67
2023-02-25T03:52:42.353Z,23.10
2023-02-25T03:55:24.310Z,25.53
2023-02-25T03:57:52.568Z,32.07
2023-02-25T04:00:25.112Z,33.00
2023-02-25T04:02:53.508Z,31.07
2023-02-25T04:05:27.616Z,27.83
2023-02-25T04:07:56.931Z,31.43
2023-02-25T04:10:26.568Z,36.70
2023-02-25T04:12:54.581Z,27.63
2023-02-25T04:15:23.599Z,27.87
2023-02-25T04:17:51.483Z,27.10
2023-02-25T04:20:19.835Z,29.87
2023-02-25T04:22:48.998Z,29.57
2023-02-25T04:25:16.837Z,30.80
2023-02-25T04:27:44.666Z,22.77
2023-02-25T04:30:14.841Z,23.47
2023-02-25T04:32:43.283Z,26.57
2023-02-25T04:35:12.141Z,29.10
2023-02-25T04:37:40.733Z,31.00
2023-02-25T04:40:16.367Z,25.43
2023-02-25T04:42:44.823Z,22.90
2023-02-25T04:45:14.027Z,29.07
2023-02-25T04:47:42.667Z,26.00
2023-02-25T04:50:12.414Z,25.73
2023-02-25T04:52:40.430Z,30.00
2023-02-25T04:55:10.650Z,32.50
2023-02-25T04:57:42.620Z,28.00
2023-02-25T05:00:18.631Z,30.43
2023-02-25T05:02:48.171Z,22.70
2023-02-25T05:05:17.202Z,27.70
2023-02-25T05:07:45.436Z,29.20
2023-02-25T05:10:15.606Z,26.33
2023-02-25T05:12:43.499Z,24.10
2023-02-25T05:15:12.105Z,28.50
2023-02-25T05:17:40.090Z,23.43
2023-02-25T05:20:12.222Z,24.83
2023-02-25T05:22:40.707Z,27.63
2023-02-25T05:25:10.358Z,30.57
2023-02-25T05:27:39.702Z,22.40
2023-02-25T05:30:09.682Z,30.07
2023-02-25T05:32:38.708Z,28.43
2023-02-25T05:35:09.009Z,19.83
2023-02-25T05:37:37.566Z,31.80
2023-02-25T05:40:09.078Z,15.03
2023-02-25T05:42:37.741Z,28.43
2023-02-25T05:45:08.937Z,29.00
2023-02-25T05:47:37.138Z,24.10
2023-02-25T05:50:06.069Z,34.00
2023-02-25T05:52:33.899Z,27.90
2023-02-25T05:55:02.221Z,32.63
2023-02-25T05:57:30.651Z,21.87
2023-02-25T05:59:58.396Z,32.23
2023-02-25T06:02:27.829Z,34.63
2023-02-25T06:04:56.161Z,29.00
2023-02-25T06:07:23.942Z,32.37
2023-02-25T06:09:51.643Z,33.20
2023-02-25T06:12:19.762Z,24.77
2023-02-25T06:14:47.595Z,33.00
2023-02-25T06:17:15.349Z,24.53
2023-02-25T06:19:44.576Z,26.13
2023-02-25T06:22:12.628Z,27.97
2023-02-25T06:24:40.587Z,27.70
2023-02-25T06:27:08.439Z,24.80
2023-02-25T06:29:36.745Z,21.23
2023-02-25T06:32:05.017Z,28.70
2023-02-25T06:34:32.978Z,27.17
2023-02-25T06:37:02.426Z,21.43
2023-02-25T06:39:30.530Z,23.60
2023-02-25T06:41:58.489Z,25.17
2023-02-25T06:44:27.591Z,24.33
2023-02-25T06:46:55.889Z,24.03
2023-02-25T06:49:24.836Z,12.93
2023-02-25T06:51:52.565Z,18.50
2023-02-25T06:54:21.887Z,11.23
2023-02-25T06:56:49.714Z,21.77
2023-02-25T06:59:17.467Z,28.93
2023-02-25T07:01:45.258Z,26.90
2023-02-25T07:04:17.449Z,21.97
2023-02-25T07:06:45.468Z,12.07
2023-02-25T07:09:13.195Z,20.20
2023-02-25T07:11:42.560Z,20.70
2023-02-25T07:14:16.215Z,23.10
2023-02-25T07:16:44.017Z,26.17
2023-02-25T07:19:11.955Z,25.10
2023-02-25T07:21:40.477Z,17.80
2023-02-25T07:24:11.297Z,21.13
2023-02-25T07:26:39.869Z,18.40
2023-02-25T07:29:09.008Z,22.07
2023-02-25T07:31:36.872Z,23.00
2023-02-25T07:34:04.667Z,8.60
2023-02-25T07:36:35.378Z,14.77
2023-02-25T07:39:09.042Z,6.97
2023-02-25T07:41:37.236Z,13.77
2023-02-25T07:44:07.022Z,19.00
2023-02-25T07:46:36.617Z,14.23
2023-02-25T07:49:04.426Z,15.40
2023-02-25T07:51:32.722Z,11.43
2023-02-25T07:54:00.704Z,11.10
2023-02-25T07:56:30.676Z,12.77
2023-02-25T07:58:58.683Z,13.03
2023-02-25T08:01:29.060Z,13.03
2023-02-25T08:04:04.255Z,8.37
2023-02-25T08:06:37.480Z,10.35
2023-02-25T08:09:06.497Z,11.30
2023-02-25T08:11:34.603Z,9.03
2023-02-25T08:14:02.603Z,6.07
2023-02-25T08:16:30.469Z,7.73
2023-02-25T08:18:59.781Z,6.47
2023-02-25T08:21:27.699Z,6.17
2023-02-25T08:23:55.539Z,7.70
2023-02-25T08:26:25.450Z,5.73
2023-02-25T08:28:54.020Z,6.80
2023-02-25T08:31:22.652Z,6.07
2023-02-25T08:33:53.200Z,8.47
2023-02-25T08:36:25.154Z,6.70
2023-02-25T08:38:55.236Z,7.77
2023-02-25T08:41:26.060Z,5.10
2023-02-25T08:43:56.886Z,6.60
2023-02-25T08:46:29.131Z,5.67
2023-02-25T08:48:58.286Z,8.97
2023-02-25T08:51:34.041Z,7.23
2023-02-25T08:54:05.471Z,4.30
2023-02-25T08:56:35.016Z,5.53
2023-02-25T08:59:04.726Z,5.27
2023-02-25T09:01:44.518Z,7.57
2023-02-25T09:04:14.644Z,2.90
2023-02-25T09:06:48.303Z,3.93
2023-02-25T09:09:18.287Z,4.17
2023-02-25T09:11:48.819Z,6.10
2023-02-25T09:14:17.668Z,5.83
2023-02-25T09:16:46.051Z,6.67
2023-02-25T09:19:17.175Z,4.97
2023-02-25T09:21:50.513Z,4.30
2023-02-25T09:24:18.489Z,3.87
2023-02-25T09:26:46.914Z,5.07
2023-02-25T09:29:14.875Z,5.77
2023-02-25T09:31:42.913Z,6.87
2023-02-25T09:34:15.203Z,2.17
2023-02-25T09:36:43.814Z,1.20
2023-02-25T09:39:13.415Z,4.07
2023-02-25T09:41:50.956Z,5.80
2023-02-25T09:44:26.911Z,8.40
2023-02-25T09:47:02.137Z,6.30
2023-02-25T09:49:39.113Z,5.43
2023-02-25T09:52:20.591Z,7.40
2023-02-25T09:54:55.742Z,5.07
2023-02-25T09:57:23.715Z,7.85
2023-02-25T09:59:53.598Z,6.37
2023-02-25T10:02:37.086Z,5.10
2023-02-25T10:05:28.656Z,6.27
2023-02-25T10:08:10.632Z,8.00
2023-02-25T10:10:49.416Z,7.40
2023-02-25T10:13:32.803Z,3.30
2023-02-25T10:16:16.530Z,5.90
2023-02-25T10:19:03.739Z,7.70
2023-02-25T10:21:52.924Z,3.00
2023-02-25T10:24:34.647Z,5.07
2023-02-25T10:27:14.662Z,8.57
2023-02-25T10:29:49.358Z,6.40
2023-02-25T10:32:22.413Z,3.13
2023-02-25T10:34:53.221Z,5.40
2023-02-25T10:37:28.812Z,4.07
2023-02-25T10:40:00.199Z,7.43
2023-02-25T10:42:30.041Z,6.13
2023-02-25T10:45:08.485Z,4.03
2023-02-25T10:47:41.547Z,5.47
2023-02-25T10:50:27.549Z,3.93
2023-02-25T10:53:05.201Z,5.93
2023-02-25T10:55:54.198Z,5.83
2023-02-25T10:58:34.550Z,5.53
2023-02-25T11:01:10.009Z,2.83
2023-02-25T11:03:51.918Z,6.55
2023-02-25T11:06:25.368Z,6.47
2023-02-25T11:08:58.461Z,6.97
2023-02-25T11:11:31.846Z,3.93
2023-02-25T11:14:06.481Z,6.13
2023-02-25T11:16:37.394Z,4.60
2023-02-25T11:19:15.101Z,2.83
2023-02-25T11:21:44.708Z,2.37
2023-02-25T11:24:17.294Z,5.47
2023-02-25T11:26:48.513Z,4.13
2023-02-25T11:29:24.968Z,4.83
2023-02-25T11:32:00.049Z,5.27
2023-02-25T11:34:30.946Z,3.83
2023-02-25T11:37:24.199Z,2.03
2023-02-25T11:39:54.104Z,2.47
2023-02-25T11:42:25.289Z,3.07
2023-02-25T11:45:02.505Z,3.17
2023-02-25T11:47:34.314Z,4.93
2023-02-25T11:50:21.533Z,1.77
2023-02-25T11:53:05.451Z,5.23
2023-02-25T11:55:57.241Z,3.77
2023-02-25T11:58:43.181Z,1.80
2023-02-25T12:01:25.520Z,3.08
2023-02-25T12:04:23.421Z,3.43
2023-02-25T12:07:47.792Z,1.90
2023-02-25T12:14:30.857Z,1.80
2023-02-25T12:17:41.814Z,5.47
2023-02-25T12:20:50.407Z,2.03
2023-02-25T12:24:11.262Z,1.67
2023-02-25T12:27:36.203Z,2.13
2023-02-25T12:30:35.393Z,2.53
2023-02-25T12:33:25.462Z,3.47
2023-02-25T12:36:08.136Z,3.27
2023-02-25T12:39:16.921Z,3.60
2023-02-25T12:41:54.799Z,3.40
2023-02-25T12:45:03.469Z,2.77
2023-02-25T12:47:57.628Z,4.23
2023-02-25T12:51:07.251Z,3.33
2023-02-25T12:53:55.573Z,1.97
2023-02-25T12:57:02.868Z,4.13
2023-02-25T13:02:58.337Z,6.23
2023-02-25T13:06:00.587Z,3.40
2023-02-25T13:08:52.951Z,2.80
2023-02-25T13:11:54.529Z,2.47
2023-02-25T13:14:40.600Z,3.30
2023-02-25T13:17:31.351Z,3.37
2023-02-25T13:20:43.648Z,3.27
2023-02-25T13:23:35.913Z,3.47
2023-02-25T13:26:29.938Z,2.50
2023-02-25T13:29:25.247Z,4.70
2023-02-25T13:32:16.978Z,3.40
2023-02-25T13:34:53.008Z,2.80
2023-02-25T13:37:44.482Z,1.43
2023-02-25T13:40:31.850Z,3.97
2023-02-25T13:43:31.179Z,3.80
2023-02-25T13:46:38.894Z,4.90
2023-02-25T13:49:41.126Z,4.03
2023-02-25T13:52:25.414Z,3.40
2023-02-25T13:55:23.777Z,2.60
2023-02-25T13:58:19.302Z,2.97
2023-02-25T14:01:07.598Z,3.00
2023-02-25T14:04:17.461Z,4.43
2023-02-25T14:07:17.207Z,2.80
2023-02-25T14:10:04.085Z,5.43
2023-02-25T14:12:49.808Z,1.47
2023-02-25T14:15:43.084Z,4.65
2023-02-25T14:18:35.330Z,4.30
2023-02-25T14:21:53.397Z,2.77
2023-02-25T14:24:35.860Z,2.30
2023-02-25T14:27:22.359Z,3.03
2023-02-25T14:30:11.973Z,4.33
2023-02-25T14:33:01.378Z,2.17
2023-02-25T14:36:05.645Z,3.63
2023-02-25T14:39:06.018Z,5.47
2023-02-25T14:41:57.613Z,1.80
2023-02-25T14:44:37.372Z,2.43
2023-02-25T14:47:14.555Z,3.23
2023-02-25T14:49:55.553Z,5.20
2023-02-25T14:52:55.928Z,5.77
2023-02-25T14:56:01.490Z,3.30
2023-02-25T14:58:53.709Z,3.70
2023-02-25T15:01:59.621Z,4.47
2023-02-25T15:05:13.589Z,3.30
2023-02-25T15:08:22.238Z,3.23
2023-02-25T15:11:23.493Z,4.40
2023-02-25T15:14:35.991Z,3.67
2023-02-25T15:17:56.469Z,3.03
2023-02-25T15:20:34.727Z,3.13
2023-02-25T15:23:09.735Z,1.50
2023-02-25T15:25:44.874Z,4.95
2023-02-25T15:28:39.983Z,4.15
2023-02-25T15:31:29.834Z,4.70
2023-02-25T15:34:35.915Z,2.93
2023-02-25T15:37:31.429Z,3.83
2023-02-25T15:40:24.219Z,2.23
2023-02-25T15:42:54.383Z,5.67
2023-02-25T15:45:36.877Z,3.63
2023-02-25T15:48:35.299Z,3.83
2023-02-25T15:51:10.504Z,5.00
2023-02-25T15:53:48.761Z,3.17
2023-02-25T15:56:30.149Z,2.40
2023-02-25T15:59:00.111Z,2.87
2023-02-25T16:01:42.602Z,4.57
2023-02-25T16:04:50.279Z,6.33
2023-02-25T16:07:22.828Z,4.10
2023-02-25T16:09:58.351Z,3.57
2023-02-25T16:12:28.567Z,1.95
2023-02-25T16:14:59.608Z,1.90
2023-02-25T16:17:34.132Z,3.97
2023-02-25T16:20:18.857Z,6.10
2023-02-25T16:22:55.023Z,4.27
2023-02-25T16:25:36.940Z,7.27
2023-02-25T16:28:17.297Z,3.03
2023-02-25T16:30:54.815Z,4.57
2023-02-25T16:33:35.223Z,1.90
2023-02-25T16:36:11.531Z,8.53
2023-02-25T16:38:56.840Z,5.53
2023-02-25T16:41:37.557Z,4.25
2023-02-25T16:44:07.765Z,5.13
2023-02-25T16:46:39.604Z,5.53
2023-02-25T16:49:17.619Z,5.57
2023-02-25T16:51:47.561Z,4.33
2023-02-25T16:54:22.359Z,6.00
2023-02-25T16:56:58.391Z,6.10
2023-02-25T16:59:31.236Z,6.97
2023-02-25T17:02:02.518Z,7.83
2023-02-25T17:04:34.648Z,5.77
2023-02-25T17:07:13.000Z,6.23
2023-02-25T17:09:47.628Z,12.10
2023-02-25T17:12:24.158Z,9.97
2023-02-25T17:14:54.327Z,13.87
2023-02-25T17:17:29.088Z,9.47
2023-02-25T17:20:32.617Z,6.13
2023-02-25T17:23:08.625Z,9.47
2023-02-25T17:25:40.447Z,5.47
2023-02-25T17:28:21.963Z,4.63
2023-02-25T17:30:53.458Z,6.27
2023-02-25T17:33:26.985Z,10.03
2023-02-25T17:36:00.825Z,8.37
2023-02-25T17:38:29.745Z,11.27
2023-02-25T17:40:59.153Z,9.23
2023-02-25T17:43:35.843Z,7.07
2023-02-25T17:46:17.460Z,4.87
2023-02-25T17:48:53.433Z,6.87
2023-02-25T17:51:33.544Z,7.63
2023-02-25T17:54:08.393Z,3.97
2023-02-25T17:56:38.058Z,8.20
2023-02-25T17:59:31.086Z,4.93
2023-02-25T18:02:02.210Z,2.20
2023-02-25T18:04:36.716Z,8.83
2023-02-25T18:07:21.878Z,6.20
2023-02-25T18:09:51.248Z,10.27
2023-02-25T18:12:25.351Z,10.00
2023-02-25T18:14:59.395Z,8.57
2023-02-25T18:17:32.071Z,7.43
2023-02-25T18:20:05.127Z,7.33
2023-02-25T18:22:39.390Z,9.33
2023-02-25T18:25:31.063Z,7.70
2023-02-25T18:27:59.044Z,8.90
2023-02-25T18:30:31.010Z,6.90
2023-02-25T18:32:59.902Z,4.90
2023-02-25T18:35:31.457Z,11.40
2023-02-25T18:38:01.082Z,12.10
2023-02-25T18:40:32.648Z,9.27
2023-02-25T18:43:00.797Z,11.97
2023-02-25T18:45:33.143Z,12.30
2023-02-25T18:48:01.669Z,12.00
2023-02-25T18:50:31.859Z,11.73
2023-02-25T18:53:00.751Z,11.03
2023-02-25T18:55:32.298Z,10.60
2023-02-25T18:58:01.102Z,10.87
2023-02-25T19:00:30.950Z,7.57
2023-02-25T19:03:02.869Z,6.53
2023-02-25T19:05:31.124Z,6.93
2023-02-25T19:07:59.322Z,6.40
2023-02-25T19:10:29.815Z,13.67
2023-02-25T19:13:04.367Z,6.20
2023-02-25T19:15:34.459Z,8.90
2023-02-25T19:18:02.666Z,3.60
2023-02-25T19:20:30.840Z,7.97
2023-02-25T19:23:00.009Z,12.63
2023-02-25T19:25:31.948Z,7.43
2023-02-25T19:28:00.005Z,11.93
2023-02-25T19:30:32.083Z,10.90
2023-02-25T19:33:04.882Z,6.70
2023-02-25T19:35:36.114Z,9.47
2023-02-25T19:38:06.833Z,8.73
2023-02-25T19:40:36.930Z,8.67
2023-02-25T19:43:05.816Z,8.67
2023-02-25T19:45:34.469Z,5.37
2023-02-25T19:48:04.750Z,8.80
2023-02-25T19:50:34.839Z,7.93
2023-02-25T19:53:04.584Z,6.50
2023-02-25T19:55:33.237Z,7.80
2023-02-25T19:58:02.057Z,9.47
2023-02-25T20:00:30.088Z,13.27
2023-02-25T20:02:58.056Z,10.00
2023-02-25T20:05:27.660Z,7.87
2023-02-25T20:07:56.583Z,10.27
2023-02-25T20:10:25.341Z,5.83
2023-02-25T20:12:54.728Z,4.33
2023-02-25T20:15:22.655Z,6.90
2023-02-25T20:17:55.052Z,6.93
2023-02-25T20:20:23.792Z,8.40
2023-02-25T20:22:53.041Z,3.37
2023-02-25T20:25:24.154Z,5.27
2023-02-25T20:27:52.070Z,5.90
2023-02-25T20:30:20.001Z,4.17
2023-02-25T20:32:47.930Z,8.47
2023-02-25T20:35:20.302Z,6.07
2023-02-25T20:38:15.630Z,5.23
2023-02-25T20:40:44.042Z,8.70
2023-02-25T20:43:12.478Z,11.57
2023-02-25T20:45:41.199Z,10.87
2023-02-25T20:48:25.296Z,5.37
2023-02-25T20:50:54.192Z,6.17
2023-02-25T20:53:24.747Z,6.87
2023-02-25T20:55:57.358Z,8.37
2023-02-25T20:58:25.239Z,5.60
2023-02-25T21:00:53.000Z,9.03
2023-02-25T21:03:20.795Z,10.43
2023-02-25T21:05:48.619Z,18.37
2023-02-25T21:08:16.435Z,6.87
2023-02-25T21:10:45.662Z,8.23
2023-02-25T21:13:15.690Z,10.73
2023-02-25T21:15:43.820Z,9.67
2023-02-25T21:18:11.579Z,10.93
2023-02-25T21:20:39.438Z,10.37
2023-02-25T21:23:07.369Z,6.13
2023-02-25T21:25:35.159Z,6.90
2023-02-25T21:28:04.649Z,9.47
2023-02-25T21:30:32.686Z,3.80
2023-02-25T21:33:00.511Z,5.93
2023-02-25T21:35:28.357Z,4.33
2023-02-25T21:37:56.712Z,5.23
2023-02-25T21:40:24.639Z,9.30
2023-02-25T21:42:52.456Z,7.33
2023-02-25T21:45:21.827Z,3.27
2023-02-25T21:47:49.807Z,6.97
2023-02-25T21:50:17.859Z,6.57
2023-02-25T21:52:45.698Z,5.73
2023-02-25T21:55:13.633Z,7.43
2023-02-25T21:57:41.581Z,5.63
2023-02-25T22:00:12.127Z,5.83
2023-02-25T22:02:41.684Z,5.07
2023-02-25T22:05:11.349Z,5.83
2023-02-25T22:07:39.149Z,5.97
2023-02-25T22:10:08.781Z,6.73
2023-02-25T22:12:36.671Z,6.50
2023-02-25T22:15:05.665Z,4.10
2023-02-25T22:17:34.088Z,3.10
2023-02-25T22:20:04.056Z,6.60
2023-02-25T22:22:31.995Z,3.60
2023-02-25T22:24:59.840Z,6.00
2023-02-25T22:27:27.600Z,1.50
2023-02-25T22:29:55.583Z,5.03
2023-02-25T22:32:23.504Z,5.03
2023-02-25T22:34:51.360Z,6.10
2023-02-25T22:37:20.468Z,4.93
2023-02-25T22:39:48.532Z,7.83
2023-02-25T22:42:16.345Z,3.57
2023-02-25T22:44:44.759Z,2.47
2023-02-25T22:47:12.547Z,3.53
2023-02-25T22:49:40.525Z,5.43
2023-02-25T22:52:08.255Z,8.07
2023-02-25T22:54:37.488Z,4.63
2023-02-25T22:57:05.485Z,2.83
2023-02-25T22:59:33.600Z,3.57
2023-02-25T23:02:02.802Z,7.10
2023-02-25T23:04:31.050Z,3.43
2023-02-25T23:06:59.025Z,7.00
2023-02-25T23:09:27.193Z,4.40
2023-02-25T23:11:56.582Z,3.17
2023-02-25T23:14:24.440Z,4.03
2023-02-25T23:16:52.598Z,5.90
2023-02-25T23:19:21.302Z,7.80
2023-02-25T23:21:49.238Z,2.83
2023-02-25T23:24:19.356Z,2.90
2023-02-25T23:26:51.064Z,14.40
2023-02-25T23:29:21.098Z,4.93
2023-02-25T23:31:49.742Z,16.30
2023-02-25T23:34:20.640Z,6.50
2023-02-25T23:36:49.093Z,9.77
2023-02-25T23:39:17.253Z,8.83
2023-02-25T23:41:45.439Z,3.60
2023-02-25T23:44:14.029Z,7.77
2023-02-25T23:46:43.502Z,7.17
2023-02-25T23:49:14.376Z,4.27
2023-02-25T23:51:44.662Z,4.80
2023-02-25T23:54:16.317Z,4.53
2023-02-25T23:56:44.751Z,7.90
2023-02-25T23:59:13.246Z,6.30
